sensor_id;sensor_type;location;lat;lon;timestamp;P1;durP1;ratioP1;P2;durP2;ratioP2
7541;SDS011;3812;50.006;8.230;2022-10-16T00:00:40;4.40;;;3.50;;
7541;SDS011;3812;50.006;8.230;2022-10-16T00:03:08;4.03;;;3.23;;
7541;SDS011;3812;50.006;8.230;2022-10-16T00:05:37;4.07;;;3.40;;
7541;SDS011;3812;50.006;8.230;2022-10-16T00:08:05;3.60;;;3.30;;
7541;SDS011;3812;50.006;8.230;2022-10-16T00:10:33;6.70;;;3.57;;
7541;SDS011;3812;50.006;8.230;2022-10-16T00:13:00;4.63;;;3.63;;
7541;SDS011;3812;50.006;8.230;2022-10-16T00:15:28;4.33;;;3.60;;
7541;SDS011;3812;50.006;8.230;2022-10-16T00:17:57;4.47;;;3.60;;
7541;SDS011;3812;50.006;8.230;2022-10-16T00:20:24;3.27;;;2.97;;
7541;SDS011;3812;50.006;8.230;2022-10-16T00:23:10;3.73;;;3.43;;
7541;SDS011;3812;50.006;8.230;2022-10-16T00:25:37;5.90;;;3.50;;
7541;SDS011;3812;50.006;8.230;2022-10-16T00:28:04;4.07;;;3.33;;
7541;SDS011;3812;50.006;8.230;2022-10-16T00:30:32;3.67;;;3.37;;
7541;SDS011;3812;50.006;8.230;2022-10-16T00:33:00;3.60;;;3.27;;
7541;SDS011;3812;50.006;8.230;2022-10-16T00:35:28;4.60;;;3.70;;
7541;SDS011;3812;50.006;8.230;2022-10-16T00:37:55;4.17;;;3.23;;
7541;SDS011;3812;50.006;8.230;2022-10-16T00:40:22;3.60;;;3.30;;
7541;SDS011;3812;50.006;8.230;2022-10-16T00:42:49;4.97;;;3.17;;
7541;SDS011;3812;50.006;8.230;2022-10-16T00:45:17;3.60;;;3.23;;
7541;SDS011;3812;50.006;8.230;2022-10-16T00:47:44;4.90;;;3.87;;
7541;SDS011;3812;50.006;8.230;2022-10-16T00:50:18;5.00;;;3.20;;
7541;SDS011;3812;50.006;8.230;2022-10-16T00:52:47;3.83;;;3.53;;
7541;SDS011;3812;50.006;8.230;2022-10-16T00:55:16;4.37;;;3.30;;
7541;SDS011;3812;50.006;8.230;2022-10-16T00:57:43;4.30;;;3.70;;
7541;SDS011;3812;50.006;8.230;2022-10-16T01:00:11;5.50;;;3.70;;
7541;SDS011;3812;50.006;8.230;2022-10-16T01:02:39;6.47;;;4.90;;
7541;SDS011;3812;50.006;8.230;2022-10-16T01:05:06;5.57;;;5.03;;
7541;SDS011;3812;50.006;8.230;2022-10-16T01:07:39;8.27;;;5.23;;
7541;SDS011;3812;50.006;8.230;2022-10-16T01:10:13;6.97;;;5.60;;
7541;SDS011;3812;50.006;8.230;2022-10-16T01:12:45;8.00;;;5.50;;
7541;SDS011;3812;50.006;8.230;2022-10-16T01:15:15;7.10;;;5.63;;
7541;SDS011;3812;50.006;8.230;2022-10-16T01:17:45;8.43;;;5.50;;
7541;SDS011;3812;50.006;8.230;2022-10-16T01:20:18;6.30;;;5.17;;
7541;SDS011;3812;50.006;8.230;2022-10-16T01:22:50;6.20;;;5.30;;
7541;SDS011;3812;50.006;8.230;2022-10-16T01:25:24;5.70;;;5.10;;
7541;SDS011;3812;50.006;8.230;2022-10-16T01:27:54;9.07;;;6.40;;
7541;SDS011;3812;50.006;8.230;2022-10-16T01:30:23;6.07;;;5.47;;
7541;SDS011;3812;50.006;8.230;2022-10-16T01:32:52;7.07;;;5.60;;
7541;SDS011;3812;50.006;8.230;2022-10-16T01:35:21;6.47;;;5.17;;
7541;SDS011;3812;50.006;8.230;2022-10-16T01:37:51;5.93;;;5.00;;
7541;SDS011;3812;50.006;8.230;2022-10-16T01:40:20;10.67;;;6.07;;
7541;SDS011;3812;50.006;8.230;2022-10-16T01:42:52;8.53;;;5.10;;
7541;SDS011;3812;50.006;8.230;2022-10-16T01:45:21;7.90;;;5.20;;
7541;SDS011;3812;50.006;8.230;2022-10-16T01:47:49;6.57;;;4.97;;
7541;SDS011;3812;50.006;8.230;2022-10-16T01:50:17;6.10;;;5.47;;
7541;SDS011;3812;50.006;8.230;2022-10-16T01:52:46;5.07;;;4.57;;
7541;SDS011;3812;50.006;8.230;2022-10-16T01:55:16;12.77;;;5.77;;
7541;SDS011;3812;50.006;8.230;2022-10-16T01:57:45;5.43;;;4.40;;
7541;SDS011;3812;50.006;8.230;2022-10-16T02:00:13;6.93;;;5.60;;
7541;SDS011;3812;50.006;8.230;2022-10-16T02:02:43;6.03;;;5.20;;
7541;SDS011;3812;50.006;8.230;2022-10-16T02:05:13;6.20;;;5.60;;
7541;SDS011;3812;50.006;8.230;2022-10-16T02:07:42;7.37;;;4.90;;
7541;SDS011;3812;50.006;8.230;2022-10-16T02:10:10;5.97;;;4.63;;
7541;SDS011;3812;50.006;8.230;2022-10-16T02:12:38;5.40;;;4.90;;
7541;SDS011;3812;50.006;8.230;2022-10-16T02:15:07;5.67;;;4.80;;
7541;SDS011;3812;50.006;8.230;2022-10-16T02:17:34;8.67;;;4.80;;
7541;SDS011;3812;50.006;8.230;2022-10-16T02:20:04;7.30;;;5.10;;
7541;SDS011;3812;50.006;8.230;2022-10-16T02:22:32;5.20;;;4.73;;
7541;SDS011;3812;50.006;8.230;2022-10-16T02:25:02;5.93;;;4.50;;
7541;SDS011;3812;50.006;8.230;2022-10-16T02:27:33;5.43;;;4.53;;
7541;SDS011;3812;50.006;8.230;2022-10-16T02:30:03;6.60;;;5.10;;
7541;SDS011;3812;50.006;8.230;2022-10-16T02:32:33;5.57;;;4.83;;
7541;SDS011;3812;50.006;8.230;2022-10-16T02:35:01;6.40;;;4.90;;
7541;SDS011;3812;50.006;8.230;2022-10-16T02:37:30;5.10;;;4.50;;
7541;SDS011;3812;50.006;8.230;2022-10-16T02:39:58;6.50;;;4.60;;
7541;SDS011;3812;50.006;8.230;2022-10-16T02:42:29;5.17;;;4.43;;
7541;SDS011;3812;50.006;8.230;2022-10-16T02:44:59;6.17;;;4.90;;
7541;SDS011;3812;50.006;8.230;2022-10-16T02:47:26;8.60;;;4.83;;
7541;SDS011;3812;50.006;8.230;2022-10-16T02:49:54;6.83;;;4.77;;
7541;SDS011;3812;50.006;8.230;2022-10-16T02:52:21;6.50;;;4.60;;
7541;SDS011;3812;50.006;8.230;2022-10-16T02:54:50;5.67;;;4.77;;
7541;SDS011;3812;50.006;8.230;2022-10-16T02:57:17;6.43;;;4.50;;
7541;SDS011;3812;50.006;8.230;2022-10-16T02:59:44;11.00;;;5.27;;
7541;SDS011;3812;50.006;8.230;2022-10-16T03:02:11;7.57;;;5.43;;
7541;SDS011;3812;50.006;8.230;2022-10-16T03:04:39;6.67;;;4.70;;
7541;SDS011;3812;50.006;8.230;2022-10-16T03:07:06;5.50;;;4.60;;
7541;SDS011;3812;50.006;8.230;2022-10-16T03:09:33;8.07;;;4.37;;
7541;SDS011;3812;50.006;8.230;2022-10-16T03:12:02;9.60;;;5.50;;
7541;SDS011;3812;50.006;8.230;2022-10-16T03:14:29;6.03;;;4.87;;
7541;SDS011;3812;50.006;8.230;2022-10-16T03:16:57;5.10;;;4.47;;
7541;SDS011;3812;50.006;8.230;2022-10-16T03:19:24;5.27;;;4.47;;
7541;SDS011;3812;50.006;8.230;2022-10-16T03:21:51;7.53;;;5.03;;
7541;SDS011;3812;50.006;8.230;2022-10-16T03:24:18;6.07;;;5.00;;
7541;SDS011;3812;50.006;8.230;2022-10-16T03:26:46;4.77;;;4.37;;
7541;SDS011;3812;50.006;8.230;2022-10-16T03:29:14;5.47;;;4.70;;
7541;SDS011;3812;50.006;8.230;2022-10-16T03:31:42;8.53;;;4.73;;
7541;SDS011;3812;50.006;8.230;2022-10-16T03:34:09;5.63;;;4.47;;
7541;SDS011;3812;50.006;8.230;2022-10-16T03:36:36;6.97;;;4.60;;
7541;SDS011;3812;50.006;8.230;2022-10-16T03:39:03;7.70;;;4.80;;
7541;SDS011;3812;50.006;8.230;2022-10-16T03:41:31;6.63;;;5.13;;
7541;SDS011;3812;50.006;8.230;2022-10-16T03:43:58;8.30;;;5.37;;
7541;SDS011;3812;50.006;8.230;2022-10-16T03:46:26;5.17;;;4.20;;
7541;SDS011;3812;50.006;8.230;2022-10-16T03:48:54;5.27;;;4.77;;
7541;SDS011;3812;50.006;8.230;2022-10-16T03:51:22;5.37;;;4.87;;
7541;SDS011;3812;50.006;8.230;2022-10-16T03:53:49;5.33;;;4.83;;
7541;SDS011;3812;50.006;8.230;2022-10-16T03:56:16;5.40;;;4.80;;
7541;SDS011;3812;50.006;8.230;2022-10-16T03:58:43;4.93;;;4.50;;
7541;SDS011;3812;50.006;8.230;2022-10-16T04:01:11;5.53;;;4.93;;
7541;SDS011;3812;50.006;8.230;2022-10-16T04:03:39;6.87;;;4.47;;
7541;SDS011;3812;50.006;8.230;2022-10-16T04:06:06;6.67;;;4.10;;
7541;SDS011;3812;50.006;8.230;2022-10-16T04:08:34;5.83;;;4.20;;
7541;SDS011;3812;50.006;8.230;2022-10-16T04:11:02;5.87;;;4.23;;
7541;SDS011;3812;50.006;8.230;2022-10-16T04:13:29;5.77;;;4.53;;
7541;SDS011;3812;50.006;8.230;2022-10-16T04:15:56;4.93;;;3.80;;
7541;SDS011;3812;50.006;8.230;2022-10-16T04:18:24;5.03;;;4.13;;
7541;SDS011;3812;50.006;8.230;2022-10-16T04:20:53;4.47;;;3.90;;
7541;SDS011;3812;50.006;8.230;2022-10-16T04:23:21;4.67;;;4.27;;
7541;SDS011;3812;50.006;8.230;2022-10-16T04:25:48;4.60;;;4.20;;
7541;SDS011;3812;50.006;8.230;2022-10-16T04:28:16;4.50;;;4.10;;
7541;SDS011;3812;50.006;8.230;2022-10-16T04:30:43;4.47;;;4.07;;
7541;SDS011;3812;50.006;8.230;2022-10-16T04:33:10;4.43;;;4.03;;
7541;SDS011;3812;50.006;8.230;2022-10-16T04:35:38;4.23;;;3.83;;
7541;SDS011;3812;50.006;8.230;2022-10-16T04:38:06;4.37;;;3.97;;
7541;SDS011;3812;50.006;8.230;2022-10-16T04:40:34;4.17;;;3.70;;
7541;SDS011;3812;50.006;8.230;2022-10-16T04:43:01;4.83;;;4.33;;
7541;SDS011;3812;50.006;8.230;2022-10-16T04:45:29;4.47;;;4.07;;
7541;SDS011;3812;50.006;8.230;2022-10-16T04:47:56;4.50;;;4.10;;
7541;SDS011;3812;50.006;8.230;2022-10-16T04:50:24;4.30;;;3.90;;
7541;SDS011;3812;50.006;8.230;2022-10-16T04:53:03;6.10;;;4.00;;
7541;SDS011;3812;50.006;8.230;2022-10-16T04:55:32;5.23;;;4.43;;
7541;SDS011;3812;50.006;8.230;2022-10-16T04:57:59;4.47;;;4.07;;
7541;SDS011;3812;50.006;8.230;2022-10-16T05:00:27;4.43;;;4.03;;
7541;SDS011;3812;50.006;8.230;2022-10-16T05:02:54;4.40;;;4.00;;
7541;SDS011;3812;50.006;8.230;2022-10-16T05:05:22;4.30;;;3.90;;
7541;SDS011;3812;50.006;8.230;2022-10-16T05:07:49;4.90;;;4.40;;
7541;SDS011;3812;50.006;8.230;2022-10-16T05:10:16;5.83;;;4.07;;
7541;SDS011;3812;50.006;8.230;2022-10-16T05:12:45;4.30;;;3.90;;
7541;SDS011;3812;50.006;8.230;2022-10-16T05:15:13;4.53;;;4.13;;
7541;SDS011;3812;50.006;8.230;2022-10-16T05:17:40;4.13;;;3.83;;
7541;SDS011;3812;50.006;8.230;2022-10-16T05:20:07;4.33;;;3.93;;
7541;SDS011;3812;50.006;8.230;2022-10-16T05:22:35;4.47;;;3.97;;
7541;SDS011;3812;50.006;8.230;2022-10-16T05:25:02;5.13;;;4.30;;
7541;SDS011;3812;50.006;8.230;2022-10-16T05:27:29;4.90;;;4.20;;
7541;SDS011;3812;50.006;8.230;2022-10-16T05:29:58;4.40;;;4.00;;
7541;SDS011;3812;50.006;8.230;2022-10-16T05:32:25;4.63;;;4.23;;
7541;SDS011;3812;50.006;8.230;2022-10-16T05:34:53;5.97;;;5.20;;
7541;SDS011;3812;50.006;8.230;2022-10-16T05:37:20;5.40;;;4.30;;
7541;SDS011;3812;50.006;8.230;2022-10-16T05:39:47;5.90;;;4.70;;
7541;SDS011;3812;50.006;8.230;2022-10-16T05:42:14;5.07;;;4.57;;
7541;SDS011;3812;50.006;8.230;2022-10-16T05:44:42;5.80;;;4.80;;
7541;SDS011;3812;50.006;8.230;2022-10-16T05:47:11;5.20;;;4.50;;
7541;SDS011;3812;50.006;8.230;2022-10-16T05:49:39;4.63;;;4.23;;
7541;SDS011;3812;50.006;8.230;2022-10-16T05:52:07;4.67;;;4.27;;
7541;SDS011;3812;50.006;8.230;2022-10-16T05:54:34;5.63;;;4.47;;
7541;SDS011;3812;50.006;8.230;2022-10-16T05:57:01;6.28;;;5.18;;
7541;SDS011;3812;50.006;8.230;2022-10-16T05:59:30;4.97;;;4.17;;
7541;SDS011;3812;50.006;8.230;2022-10-16T06:01:58;4.80;;;4.10;;
7541;SDS011;3812;50.006;8.230;2022-10-16T06:04:26;5.27;;;4.73;;
7541;SDS011;3812;50.006;8.230;2022-10-16T06:06:54;8.17;;;4.10;;
7541;SDS011;3812;50.006;8.230;2022-10-16T06:09:26;4.33;;;3.93;;
7541;SDS011;3812;50.006;8.230;2022-10-16T06:11:53;4.60;;;4.03;;
7541;SDS011;3812;50.006;8.230;2022-10-16T06:14:20;5.90;;;4.27;;
7541;SDS011;3812;50.006;8.230;2022-10-16T06:16:48;4.27;;;3.87;;
7541;SDS011;3812;50.006;8.230;2022-10-16T06:19:15;3.80;;;3.50;;
7541;SDS011;3812;50.006;8.230;2022-10-16T06:21:44;3.67;;;3.37;;
7541;SDS011;3812;50.006;8.230;2022-10-16T06:24:11;4.50;;;3.63;;
7541;SDS011;3812;50.006;8.230;2022-10-16T06:26:38;4.83;;;3.90;;
7541;SDS011;3812;50.006;8.230;2022-10-16T06:29:07;5.53;;;4.23;;
7541;SDS011;3812;50.006;8.230;2022-10-16T06:31:35;6.17;;;4.10;;
7541;SDS011;3812;50.006;8.230;2022-10-16T06:34:02;4.70;;;4.13;;
7541;SDS011;3812;50.006;8.230;2022-10-16T06:36:31;4.47;;;3.80;;
7541;SDS011;3812;50.006;8.230;2022-10-16T06:39:00;4.60;;;4.20;;
7541;SDS011;3812;50.006;8.230;2022-10-16T06:41:27;5.50;;;4.10;;
7541;SDS011;3812;50.006;8.230;2022-10-16T06:43:55;4.63;;;4.23;;
7541;SDS011;3812;50.006;8.230;2022-10-16T06:46:23;4.40;;;4.00;;
7541;SDS011;3812;50.006;8.230;2022-10-16T06:48:50;4.50;;;4.10;;
7541;SDS011;3812;50.006;8.230;2022-10-16T06:51:18;4.57;;;4.00;;
7541;SDS011;3812;50.006;8.230;2022-10-16T06:53:46;4.37;;;3.97;;
7541;SDS011;3812;50.006;8.230;2022-10-16T06:56:16;4.97;;;4.37;;
7541;SDS011;3812;50.006;8.230;2022-10-16T06:58:44;5.73;;;3.80;;
7541;SDS011;3812;50.006;8.230;2022-10-16T07:01:12;4.77;;;4.20;;
7541;SDS011;3812;50.006;8.230;2022-10-16T07:03:40;4.70;;;3.73;;
7541;SDS011;3812;50.006;8.230;2022-10-16T07:06:08;5.13;;;4.53;;
7541;SDS011;3812;50.006;8.230;2022-10-16T07:08:37;4.63;;;4.23;;
7541;SDS011;3812;50.006;8.230;2022-10-16T07:11:05;6.10;;;4.33;;
7541;SDS011;3812;50.006;8.230;2022-10-16T07:13:34;6.20;;;4.67;;
7541;SDS011;3812;50.006;8.230;2022-10-16T07:16:04;6.53;;;4.77;;
7541;SDS011;3812;50.006;8.230;2022-10-16T07:18:31;5.40;;;4.83;;
7541;SDS011;3812;50.006;8.230;2022-10-16T07:21:02;4.93;;;4.43;;
7541;SDS011;3812;50.006;8.230;2022-10-16T07:23:30;4.67;;;4.13;;
7541;SDS011;3812;50.006;8.230;2022-10-16T07:25:57;4.67;;;4.27;;
7541;SDS011;3812;50.006;8.230;2022-10-16T07:28:25;5.13;;;4.37;;
7541;SDS011;3812;50.006;8.230;2022-10-16T07:30:53;5.00;;;4.53;;
7541;SDS011;3812;50.006;8.230;2022-10-16T07:33:20;8.10;;;5.20;;
7541;SDS011;3812;50.006;8.230;2022-10-16T07:35:48;4.37;;;3.97;;
7541;SDS011;3812;50.006;8.230;2022-10-16T07:38:16;4.57;;;4.03;;
7541;SDS011;3812;50.006;8.230;2022-10-16T07:40:43;4.67;;;4.27;;
7541;SDS011;3812;50.006;8.230;2022-10-16T07:43:11;4.67;;;4.27;;
7541;SDS011;3812;50.006;8.230;2022-10-16T07:45:45;4.97;;;4.13;;
7541;SDS011;3812;50.006;8.230;2022-10-16T07:48:14;6.63;;;4.13;;
7541;SDS011;3812;50.006;8.230;2022-10-16T07:50:42;4.43;;;4.03;;
7541;SDS011;3812;50.006;8.230;2022-10-16T07:53:09;5.43;;;4.27;;
7541;SDS011;3812;50.006;8.230;2022-10-16T07:55:37;4.00;;;3.60;;
7541;SDS011;3812;50.006;8.230;2022-10-16T07:58:04;5.20;;;3.77;;
7541;SDS011;3812;50.006;8.230;2022-10-16T08:00:32;4.23;;;3.50;;
7541;SDS011;3812;50.006;8.230;2022-10-16T08:02:59;4.60;;;4.10;;
7541;SDS011;3812;50.006;8.230;2022-10-16T08:05:28;5.47;;;3.90;;
7541;SDS011;3812;50.006;8.230;2022-10-16T08:07:56;4.70;;;4.23;;
7541;SDS011;3812;50.006;8.230;2022-10-16T08:10:24;4.83;;;3.70;;
7541;SDS011;3812;50.006;8.230;2022-10-16T08:12:52;5.90;;;4.90;;
7541;SDS011;3812;50.006;8.230;2022-10-16T08:15:19;7.93;;;5.70;;
7541;SDS011;3812;50.006;8.230;2022-10-16T08:17:53;7.17;;;5.67;;
7541;SDS011;3812;50.006;8.230;2022-10-16T08:20:20;8.47;;;4.80;;
7541;SDS011;3812;50.006;8.230;2022-10-16T08:22:49;5.97;;;5.23;;
7541;SDS011;3812;50.006;8.230;2022-10-16T08:25:16;5.23;;;4.73;;
7541;SDS011;3812;50.006;8.230;2022-10-16T08:27:44;4.80;;;3.93;;
7541;SDS011;3812;50.006;8.230;2022-10-16T08:30:11;6.60;;;4.90;;
7541;SDS011;3812;50.006;8.230;2022-10-16T08:32:38;11.00;;;5.37;;
7541;SDS011;3812;50.006;8.230;2022-10-16T08:35:06;10.60;;;5.43;;
7541;SDS011;3812;50.006;8.230;2022-10-16T08:37:34;8.80;;;5.33;;
7541;SDS011;3812;50.006;8.230;2022-10-16T08:40:03;9.07;;;5.30;;
7541;SDS011;3812;50.006;8.230;2022-10-16T08:42:37;4.57;;;3.50;;
7541;SDS011;3812;50.006;8.230;2022-10-16T08:48:05;8.37;;;4.67;;
7541;SDS011;3812;50.006;8.230;2022-10-16T08:50:37;8.37;;;5.10;;
7541;SDS011;3812;50.006;8.230;2022-10-16T08:53:05;5.60;;;4.70;;
7541;SDS011;3812;50.006;8.230;2022-10-16T08:55:36;5.27;;;4.00;;
7541;SDS011;3812;50.006;8.230;2022-10-16T08:58:09;6.47;;;3.67;;
7541;SDS011;3812;50.006;8.230;2022-10-16T09:00:37;3.60;;;3.00;;
7541;SDS011;3812;50.006;8.230;2022-10-16T09:03:07;4.53;;;2.73;;
7541;SDS011;3812;50.006;8.230;2022-10-16T09:05:43;4.17;;;3.00;;
7541;SDS011;3812;50.006;8.230;2022-10-16T09:08:14;4.53;;;2.97;;
7541;SDS011;3812;50.006;8.230;2022-10-16T09:10:48;3.67;;;3.10;;
7541;SDS011;3812;50.006;8.230;2022-10-16T09:13:20;4.83;;;4.10;;
7541;SDS011;3812;50.006;8.230;2022-10-16T09:15:51;4.87;;;3.43;;
7541;SDS011;3812;50.006;8.230;2022-10-16T09:18:23;6.50;;;3.43;;
7541;SDS011;3812;50.006;8.230;2022-10-16T09:20:53;6.10;;;3.50;;
7541;SDS011;3812;50.006;8.230;2022-10-16T09:23:25;3.53;;;2.80;;
7541;SDS011;3812;50.006;8.230;2022-10-16T09:25:54;3.60;;;3.30;;
7541;SDS011;3812;50.006;8.230;2022-10-16T09:28:21;3.73;;;3.33;;
7541;SDS011;3812;50.006;8.230;2022-10-16T09:30:49;3.77;;;3.30;;
7541;SDS011;3812;50.006;8.230;2022-10-16T09:33:17;6.00;;;3.50;;
7541;SDS011;3812;50.006;8.230;2022-10-16T09:35:46;4.83;;;3.03;;
7541;SDS011;3812;50.006;8.230;2022-10-16T09:38:21;3.67;;;2.70;;
7541;SDS011;3812;50.006;8.230;2022-10-16T09:40:49;3.53;;;2.97;;
7541;SDS011;3812;50.006;8.230;2022-10-16T09:43:21;3.37;;;3.07;;
7541;SDS011;3812;50.006;8.230;2022-10-16T09:48:36;3.37;;;2.73;;
7541;SDS011;3812;50.006;8.230;2022-10-16T09:51:04;5.07;;;2.63;;
7541;SDS011;3812;50.006;8.230;2022-10-16T09:53:37;2.47;;;2.00;;
7541;SDS011;3812;50.006;8.230;2022-10-16T09:56:05;2.20;;;1.80;;
7541;SDS011;3812;50.006;8.230;2022-10-16T09:58:34;1.40;;;1.30;;
7541;SDS011;3812;50.006;8.230;2022-10-16T10:01:02;1.30;;;1.20;;
7541;SDS011;3812;50.006;8.230;2022-10-16T10:03:33;1.70;;;1.30;;
7541;SDS011;3812;50.006;8.230;2022-10-16T10:06:03;1.63;;;1.23;;
7541;SDS011;3812;50.006;8.230;2022-10-16T10:08:32;1.37;;;1.17;;
7541;SDS011;3812;50.006;8.230;2022-10-16T10:10:59;2.53;;;1.47;;
7541;SDS011;3812;50.006;8.230;2022-10-16T10:13:27;1.10;;;1.00;;
7541;SDS011;3812;50.006;8.230;2022-10-16T10:15:55;1.20;;;1.10;;
7541;SDS011;3812;50.006;8.230;2022-10-16T10:18:23;3.30;;;1.30;;
7541;SDS011;3812;50.006;8.230;2022-10-16T10:20:57;2.30;;;1.40;;
7541;SDS011;3812;50.006;8.230;2022-10-16T10:23:25;1.37;;;1.27;;
7541;SDS011;3812;50.006;8.230;2022-10-16T10:25:53;2.07;;;1.40;;
7541;SDS011;3812;50.006;8.230;2022-10-16T10:28:27;3.43;;;1.40;;
7541;SDS011;3812;50.006;8.230;2022-10-16T10:31:00;1.50;;;1.40;;
7541;SDS011;3812;50.006;8.230;2022-10-16T10:33:31;2.10;;;1.67;;
7541;SDS011;3812;50.006;8.230;2022-10-16T10:36:05;1.83;;;1.50;;
7541;SDS011;3812;50.006;8.230;2022-10-16T10:38:38;1.77;;;1.50;;
7541;SDS011;3812;50.006;8.230;2022-10-16T10:41:14;3.07;;;1.70;;
7541;SDS011;3812;50.006;8.230;2022-10-16T10:43:46;1.73;;;1.50;;
7541;SDS011;3812;50.006;8.230;2022-10-16T10:46:19;2.10;;;1.57;;
7541;SDS011;3812;50.006;8.230;2022-10-16T10:48:54;2.40;;;1.90;;
7541;SDS011;3812;50.006;8.230;2022-10-16T10:51:23;2.80;;;1.40;;
7541;SDS011;3812;50.006;8.230;2022-10-16T10:53:56;1.60;;;1.20;;
7541;SDS011;3812;50.006;8.230;2022-10-16T10:56:43;1.20;;;1.10;;
7541;SDS011;3812;50.006;8.230;2022-10-16T10:59:16;1.90;;;1.27;;
7541;SDS011;3812;50.006;8.230;2022-10-16T11:01:50;1.90;;;1.50;;
7541;SDS011;3812;50.006;8.230;2022-10-16T11:04:34;2.10;;;1.53;;
7541;SDS011;3812;50.006;8.230;2022-10-16T11:07:05;1.53;;;1.37;;
7541;SDS011;3812;50.006;8.230;2022-10-16T11:09:33;1.97;;;1.43;;
7541;SDS011;3812;50.006;8.230;2022-10-16T11:12:05;1.90;;;1.43;;
7541;SDS011;3812;50.006;8.230;2022-10-16T11:14:34;3.27;;;1.10;;
7541;SDS011;3812;50.006;8.230;2022-10-16T11:17:05;1.63;;;1.10;;
7541;SDS011;3812;50.006;8.230;2022-10-16T11:19:36;2.70;;;1.23;;
7541;SDS011;3812;50.006;8.230;2022-10-16T11:22:05;1.13;;;0.87;;
7541;SDS011;3812;50.006;8.230;2022-10-16T11:24:39;1.00;;;0.90;;
7541;SDS011;3812;50.006;8.230;2022-10-16T11:27:09;1.87;;;0.80;;
7541;SDS011;3812;50.006;8.230;2022-10-16T11:29:43;1.87;;;1.00;;
7541;SDS011;3812;50.006;8.230;2022-10-16T11:32:15;2.00;;;0.87;;
7541;SDS011;3812;50.006;8.230;2022-10-16T11:34:47;1.53;;;1.10;;
7541;SDS011;3812;50.006;8.230;2022-10-16T11:37:17;2.33;;;0.90;;
7541;SDS011;3812;50.006;8.230;2022-10-16T11:39:46;2.33;;;1.00;;
7541;SDS011;3812;50.006;8.230;2022-10-16T11:42:16;1.40;;;0.90;;
7541;SDS011;3812;50.006;8.230;2022-10-16T11:44:48;2.87;;;1.20;;
7541;SDS011;3812;50.006;8.230;2022-10-16T11:47:27;1.30;;;1.00;;
7541;SDS011;3812;50.006;8.230;2022-10-16T11:49:58;1.93;;;0.90;;
7541;SDS011;3812;50.006;8.230;2022-10-16T11:52:28;1.40;;;1.10;;
7541;SDS011;3812;50.006;8.230;2022-10-16T11:54:57;2.00;;;1.17;;
7541;SDS011;3812;50.006;8.230;2022-10-16T11:57:27;3.07;;;1.27;;
7541;SDS011;3812;50.006;8.230;2022-10-16T11:59:55;1.47;;;1.00;;
7541;SDS011;3812;50.006;8.230;2022-10-16T12:02:31;2.87;;;1.10;;
7541;SDS011;3812;50.006;8.230;2022-10-16T12:05:03;1.30;;;1.10;;
7541;SDS011;3812;50.006;8.230;2022-10-16T12:07:34;2.37;;;1.37;;
7541;SDS011;3812;50.006;8.230;2022-10-16T12:10:10;2.20;;;1.57;;
7541;SDS011;3812;50.006;8.230;2022-10-16T12:12:38;1.87;;;1.23;;
7541;SDS011;3812;50.006;8.230;2022-10-16T12:15:18;1.23;;;1.00;;
7541;SDS011;3812;50.006;8.230;2022-10-16T12:17:47;2.30;;;1.10;;
7541;SDS011;3812;50.006;8.230;2022-10-16T12:20:25;1.43;;;1.30;;
7541;SDS011;3812;50.006;8.230;2022-10-16T12:22:53;1.53;;;1.20;;
7541;SDS011;3812;50.006;8.230;2022-10-16T12:25:22;3.73;;;1.10;;
7541;SDS011;3812;50.006;8.230;2022-10-16T12:27:56;1.40;;;1.27;;
7541;SDS011;3812;50.006;8.230;2022-10-16T12:30:24;1.97;;;1.30;;
7541;SDS011;3812;50.006;8.230;2022-10-16T12:32:56;1.40;;;1.30;;
7541;SDS011;3812;50.006;8.230;2022-10-16T12:35:25;1.33;;;1.23;;
7541;SDS011;3812;50.006;8.230;2022-10-16T12:37:53;2.47;;;1.37;;
7541;SDS011;3812;50.006;8.230;2022-10-16T12:40:26;3.03;;;1.23;;
7541;SDS011;3812;50.006;8.230;2022-10-16T12:42:53;1.80;;;1.23;;
7541;SDS011;3812;50.006;8.230;2022-10-16T12:45:25;2.33;;;1.50;;
7541;SDS011;3812;50.006;8.230;2022-10-16T12:47:53;1.23;;;1.13;;
7541;SDS011;3812;50.006;8.230;2022-10-16T12:50:26;1.90;;;1.33;;
7541;SDS011;3812;50.006;8.230;2022-10-16T12:52:55;1.40;;;1.30;;
7541;SDS011;3812;50.006;8.230;2022-10-16T12:55:23;2.17;;;1.40;;
7541;SDS011;3812;50.006;8.230;2022-10-16T12:57:59;1.27;;;1.17;;
7541;SDS011;3812;50.006;8.230;2022-10-16T13:00:28;1.33;;;1.03;;
7541;SDS011;3812;50.006;8.230;2022-10-16T13:03:07;1.90;;;1.13;;
7541;SDS011;3812;50.006;8.230;2022-10-16T13:05:44;1.37;;;1.20;;
7541;SDS011;3812;50.006;8.230;2022-10-16T13:08:24;2.23;;;1.13;;
7541;SDS011;3812;50.006;8.230;2022-10-16T13:10:55;3.33;;;1.40;;
7541;SDS011;3812;50.006;8.230;2022-10-16T13:13:40;4.90;;;1.37;;
7541;SDS011;3812;50.006;8.230;2022-10-16T13:16:14;1.10;;;0.90;;
7541;SDS011;3812;50.006;8.230;2022-10-16T13:18:48;1.33;;;1.13;;
7541;SDS011;3812;50.006;8.230;2022-10-16T13:21:20;2.03;;;1.10;;
7541;SDS011;3812;50.006;8.230;2022-10-16T13:23:51;1.77;;;1.10;;
7541;SDS011;3812;50.006;8.230;2022-10-16T13:26:23;1.20;;;0.93;;
7541;SDS011;3812;50.006;8.230;2022-10-16T13:28:53;1.37;;;1.27;;
7541;SDS011;3812;50.006;8.230;2022-10-16T13:31:25;1.70;;;1.20;;
7541;SDS011;3812;50.006;8.230;2022-10-16T13:33:52;1.43;;;1.00;;
7541;SDS011;3812;50.006;8.230;2022-10-16T13:36:23;5.77;;;1.43;;
7541;SDS011;3812;50.006;8.230;2022-10-16T13:38:59;1.83;;;1.27;;
7541;SDS011;3812;50.006;8.230;2022-10-16T13:41:27;2.03;;;1.37;;
7541;SDS011;3812;50.006;8.230;2022-10-16T13:43:54;1.00;;;0.90;;
7541;SDS011;3812;50.006;8.230;2022-10-16T13:46:24;2.17;;;1.13;;
7541;SDS011;3812;50.006;8.230;2022-10-16T13:48:57;2.10;;;1.40;;
7541;SDS011;3812;50.006;8.230;2022-10-16T13:51:26;2.07;;;1.50;;
7541;SDS011;3812;50.006;8.230;2022-10-16T13:53:54;1.93;;;1.50;;
7541;SDS011;3812;50.006;8.230;2022-10-16T13:56:24;1.83;;;1.33;;
7541;SDS011;3812;50.006;8.230;2022-10-16T13:58:59;1.70;;;1.00;;
7541;SDS011;3812;50.006;8.230;2022-10-16T14:01:27;1.77;;;1.40;;
7541;SDS011;3812;50.006;8.230;2022-10-16T14:03:59;2.33;;;1.70;;
7541;SDS011;3812;50.006;8.230;2022-10-16T14:06:29;1.50;;;1.40;;
7541;SDS011;3812;50.006;8.230;2022-10-16T14:08:58;1.57;;;1.47;;
7541;SDS011;3812;50.006;8.230;2022-10-16T14:11:26;1.77;;;1.20;;
7541;SDS011;3812;50.006;8.230;2022-10-16T14:13:53;1.60;;;1.50;;
7541;SDS011;3812;50.006;8.230;2022-10-16T14:16:21;2.37;;;1.60;;
7541;SDS011;3812;50.006;8.230;2022-10-16T14:18:53;2.47;;;1.37;;
7541;SDS011;3812;50.006;8.230;2022-10-16T14:21:22;1.60;;;1.23;;
7541;SDS011;3812;50.006;8.230;2022-10-16T14:23:51;2.80;;;1.30;;
7541;SDS011;3812;50.006;8.230;2022-10-16T14:26:19;1.73;;;1.47;;
7541;SDS011;3812;50.006;8.230;2022-10-16T14:28:47;1.73;;;1.63;;
7541;SDS011;3812;50.006;8.230;2022-10-16T14:31:26;1.73;;;1.50;;
7541;SDS011;3812;50.006;8.230;2022-10-16T14:33:54;2.50;;;1.40;;
7541;SDS011;3812;50.006;8.230;2022-10-16T14:36:21;2.67;;;1.30;;
7541;SDS011;3812;50.006;8.230;2022-10-16T14:38:52;2.17;;;1.57;;
7541;SDS011;3812;50.006;8.230;2022-10-16T14:41:22;1.77;;;1.40;;
7541;SDS011;3812;50.006;8.230;2022-10-16T14:43:50;1.60;;;1.10;;
7541;SDS011;3812;50.006;8.230;2022-10-16T14:46:19;1.80;;;1.50;;
7541;SDS011;3812;50.006;8.230;2022-10-16T14:48:51;3.03;;;1.50;;
7541;SDS011;3812;50.006;8.230;2022-10-16T14:51:21;1.50;;;1.30;;
7541;SDS011;3812;50.006;8.230;2022-10-16T14:53:49;4.27;;;1.90;;
7541;SDS011;3812;50.006;8.230;2022-10-16T14:56:18;1.70;;;1.50;;
7541;SDS011;3812;50.006;8.230;2022-10-16T14:58:46;1.50;;;1.40;;
7541;SDS011;3812;50.006;8.230;2022-10-16T15:01:14;2.43;;;1.80;;
7541;SDS011;3812;50.006;8.230;2022-10-16T15:03:41;1.93;;;1.80;;
7541;SDS011;3812;50.006;8.230;2022-10-16T15:06:09;2.37;;;1.87;;
7541;SDS011;3812;50.006;8.230;2022-10-16T15:08:37;1.90;;;1.70;;
7541;SDS011;3812;50.006;8.230;2022-10-16T15:11:05;3.13;;;1.80;;
7541;SDS011;3812;50.006;8.230;2022-10-16T15:13:34;2.17;;;1.60;;
7541;SDS011;3812;50.006;8.230;2022-10-16T15:16:01;2.33;;;1.67;;
7541;SDS011;3812;50.006;8.230;2022-10-16T15:18:29;3.00;;;1.60;;
7541;SDS011;3812;50.006;8.230;2022-10-16T15:20:56;1.90;;;1.70;;
7541;SDS011;3812;50.006;8.230;2022-10-16T15:23:23;1.93;;;1.83;;
7541;SDS011;3812;50.006;8.230;2022-10-16T15:25:51;2.03;;;1.83;;
7541;SDS011;3812;50.006;8.230;2022-10-16T15:28:19;1.93;;;1.80;;
7541;SDS011;3812;50.006;8.230;2022-10-16T15:30:49;2.23;;;1.90;;
7541;SDS011;3812;50.006;8.230;2022-10-16T15:33:17;2.73;;;2.07;;